createdAt,value
2022-12-14T00:00:09.503Z,98289.63
2022-12-14T00:00:21.501Z,98291.31
2022-12-14T00:00:33.596Z,98290.44
2022-12-14T00:00:46.557Z,98286.19
2022-12-14T00:00:58.649Z,98287.91
2022-12-14T00:01:16.224Z,98287.91
2022-12-14T00:01:28.507Z,98283.66
2022-12-14T00:01:40.492Z,98279.41
2022-12-14T00:01:52.898Z,98281.97
2022-12-14T00:02:06.519Z,98281.09
2022-12-14T00:02:18.519Z,98279.41
2022-12-14T00:02:30.629Z,98280.25
2022-12-14T00:02:42.829Z,98286.19
2022-12-14T00:02:55.622Z,98286.19
2022-12-14T00:03:08.769Z,98284.47
2022-12-14T00:03:21.338Z,98288.72
2022-12-14T00:03:33.389Z,98286.19
2022-12-14T00:03:48.750Z,98281.91
2022-12-14T00:04:00.746Z,98287.84
2022-12-14T00:04:12.943Z,98288.69
2022-12-14T00:04:24.967Z,98278.44
2022-12-14T00:04:36.968Z,98287.84
2022-12-14T00:04:48.958Z,98288.69
2022-12-14T00:05:00.839Z,98290.38
2022-12-14T00:05:12.738Z,98289.56
2022-12-14T00:05:24.701Z,98282.72
2022-12-14T00:05:36.659Z,98281.91
2022-12-14T00:05:48.721Z,98287.84
2022-12-14T00:06:08.283Z,98290.41
2022-12-14T00:06:23.274Z,98282.72
2022-12-14T00:06:35.280Z,98288.66
2022-12-14T00:06:47.278Z,98281.84
2022-12-14T00:06:59.179Z,98278.44
2022-12-14T00:07:11.135Z,98283.50
2022-12-14T00:07:23.127Z,98280.09
2022-12-14T00:07:35.080Z,98280.94
2022-12-14T00:07:47.045Z,98287.75
2022-12-14T00:08:01.832Z,98285.19
2022-12-14T00:08:15.364Z,98288.59
2022-12-14T00:08:27.661Z,98282.66
2022-12-14T00:08:42.028Z,98280.94
2022-12-14T00:08:57.615Z,98280.94
2022-12-14T00:09:09.798Z,98284.31
2022-12-14T00:09:21.797Z,98282.59
2022-12-14T00:09:33.759Z,98286.03
2022-12-14T00:09:47.051Z,98279.19
2022-12-14T00:09:59.120Z,98286.84
2022-12-14T00:10:11.542Z,98279.19
2022-12-14T00:10:23.694Z,98276.63
2022-12-14T00:10:37.731Z,98279.16
2022-12-14T00:10:49.673Z,98285.09
2022-12-14T00:11:01.563Z,98285.09
2022-12-14T00:11:17.033Z,98287.63
2022-12-14T00:11:29.211Z,98286.81
2022-12-14T00:11:41.378Z,98284.25
2022-12-14T00:11:53.341Z,98273.16
2022-12-14T00:12:05.345Z,98280.84
2022-12-14T00:12:17.506Z,98285.94
2022-12-14T00:12:29.546Z,98271.44
2022-12-14T00:12:41.442Z,98281.66
2022-12-14T00:12:53.517Z,98277.41
2022-12-14T00:13:06.864Z,98276.56
2022-12-14T00:13:18.758Z,98273.16
2022-12-14T00:13:30.668Z,98273.13
2022-12-14T00:13:43.965Z,98268.00
2022-12-14T00:14:02.932Z,98266.34
2022-12-14T00:14:14.961Z,98266.34
2022-12-14T00:14:26.855Z,98268.91
2022-12-14T00:14:39.901Z,98271.44
2022-12-14T00:14:51.794Z,98271.44
2022-12-14T00:15:04.520Z,98262.06
2022-12-14T00:15:16.464Z,98265.47
2022-12-14T00:15:28.703Z,98258.63
2022-12-14T00:15:41.135Z,98264.63
2022-12-14T00:15:53.165Z,98267.16
2022-12-14T00:16:24.550Z,98260.34
2022-12-14T00:16:36.561Z,98256.13
2022-12-14T00:16:48.535Z,98260.41
2022-12-14T00:17:00.468Z,98251.88
2022-12-14T00:17:12.367Z,98258.69
2022-12-14T00:17:24.262Z,98258.69
2022-12-14T00:17:36.171Z,98258.69
2022-12-14T00:17:48.051Z,98258.69
2022-12-14T00:18:00.422Z,98257.88
2022-12-14T00:18:12.415Z,98253.59
2022-12-14T00:18:24.894Z,98257.03
2022-12-14T00:18:37.079Z,98258.75
2022-12-14T00:18:52.361Z,98260.41
2022-12-14T00:19:05.642Z,98253.59
2022-12-14T00:19:18.142Z,98262.13
2022-12-14T00:19:30.143Z,98258.69
2022-12-14T00:19:42.112Z,98254.44
2022-12-14T00:19:54.873Z,98257.88
2022-12-14T00:20:07.956Z,98257.03
2022-12-14T00:20:20.401Z,98258.69
2022-12-14T00:20:33.717Z,98258.69
2022-12-14T00:20:45.620Z,98258.75
2022-12-14T00:21:06.807Z,98263.88
2022-12-14T00:21:18.872Z,98257.06
2022-12-14T00:21:30.768Z,98262.97
2022-12-14T00:21:42.669Z,98260.44
2022-12-14T00:21:54.683Z,98264.69
2022-12-14T00:22:06.574Z,98257.88
2022-12-14T00:22:18.549Z,98258.69
2022-12-14T00:22:30.487Z,98255.31
2022-12-14T00:22:42.452Z,98257.03
2022-12-14T00:22:55.360Z,98255.31
2022-12-14T00:23:07.345Z,98260.41
2022-12-14T00:23:19.510Z,98264.63
2022-12-14T00:23:37.189Z,98254.44
2022-12-14T00:23:52.434Z,98260.41
2022-12-14T00:24:04.567Z,98253.59
2022-12-14T00:24:16.493Z,98257.84
2022-12-14T00:24:28.804Z,98250.19
2022-12-14T00:24:40.748Z,98253.59
2022-12-14T00:24:52.670Z,98252.75
2022-12-14T00:25:04.969Z,98255.25
2022-12-14T00:25:17.068Z,98256.22
2022-12-14T00:25:28.987Z,98253.66
2022-12-14T00:25:40.878Z,98256.16
2022-12-14T00:25:52.961Z,98257.03
2022-12-14T00:26:13.683Z,98255.31
2022-12-14T00:26:31.122Z,98257.84
2022-12-14T00:26:43.512Z,98256.97
2022-12-14T00:26:55.518Z,98254.41
2022-12-14T00:27:07.408Z,98255.25
2022-12-14T00:27:19.367Z,98251.84
2022-12-14T00:27:31.269Z,98251.84
2022-12-14T00:27:44.928Z,98253.50
2022-12-14T00:27:56.867Z,98256.94
2022-12-14T00:28:08.758Z,98252.66
2022-12-14T00:28:20.705Z,98255.22
2022-12-14T00:28:32.664Z,98260.31
2022-12-14T00:28:46.385Z,98257.75
2022-12-14T00:29:00.183Z,98258.59
2022-12-14T00:29:12.115Z,98258.59
2022-12-14T00:29:24.066Z,98255.16
2022-12-14T00:29:36.065Z,98256.88
2022-12-14T00:29:48.001Z,98258.66
2022-12-14T00:29:59.909Z,98258.63
2022-12-14T00:30:18.030Z,98266.28
2022-12-14T00:30:30.055Z,98262.91
2022-12-14T00:30:42.134Z,98265.44
2022-12-14T00:30:58.498Z,98257.81
2022-12-14T00:31:11.737Z,98257.78
2022-12-14T00:31:25.276Z,98255.22
2022-12-14T00:31:37.491Z,98265.44
2022-12-14T00:31:50.000Z,98268.81
2022-12-14T00:32:01.957Z,98263.72
2022-12-14T00:32:13.916Z,98261.16
2022-12-14T00:32:25.871Z,98258.59
2022-12-14T00:32:37.868Z,98260.28
2022-12-14T00:32:49.754Z,98262.00
2022-12-14T00:33:01.784Z,98257.75
2022-12-14T00:33:13.714Z,98259.44
2022-12-14T00:33:25.638Z,98262.97
2022-12-14T00:33:37.882Z,98258.69
2022-12-14T00:33:50.619Z,98261.25
2022-12-14T00:34:02.635Z,98259.53
2022-12-14T00:34:14.632Z,98258.69
2022-12-14T00:34:26.525Z,98262.94
2022-12-14T00:34:38.625Z,98262.09
2022-12-14T00:34:50.687Z,98267.19
2022-12-14T00:35:02.664Z,98254.47
2022-12-14T00:35:17.364Z,98255.31
2022-12-14T00:35:29.434Z,98262.13
2022-12-14T00:35:41.380Z,98258.69
2022-12-14T00:35:53.383Z,98256.97
2022-12-14T00:36:07.827Z,98252.72
2022-12-14T00:36:20.190Z,98263.78
2022-12-14T00:36:32.264Z,98256.13
2022-12-14T00:36:44.223Z,98253.56
2022-12-14T00:36:56.214Z,98256.13
2022-12-14T00:37:08.091Z,98247.56
2022-12-14T00:37:20.032Z,98255.22
2022-12-14T00:37:31.995Z,98254.34
2022-12-14T00:37:44.451Z,98245.00
2022-12-14T00:38:00.783Z,98246.72
2022-12-14T00:38:12.676Z,98250.97
2022-12-14T00:38:25.004Z,98248.41
2022-12-14T00:38:37.836Z,98245.00
2022-12-14T00:38:49.937Z,98251.84
2022-12-14T00:39:01.847Z,98246.69
2022-12-14T00:39:13.793Z,98243.28
2022-12-14T00:39:25.683Z,98242.38
2022-12-14T00:39:37.577Z,98243.28
2022-12-14T00:39:49.556Z,98238.19
2022-12-14T00:40:01.647Z,98250.13
2022-12-14T00:40:13.759Z,98246.75
2022-12-14T00:40:25.713Z,98251.84
2022-12-14T00:40:37.683Z,98245.03
2022-12-14T00:40:50.273Z,98240.75
2022-12-14T00:41:02.359Z,98246.81
2022-12-14T00:41:14.392Z,98238.31
2022-12-14T00:41:26.339Z,98250.22
2022-12-14T00:41:38.283Z,98241.69
2022-12-14T00:41:50.197Z,98243.38
2022-12-14T00:42:02.162Z,98240.88
2022-12-14T00:42:14.351Z,98242.56
2022-12-14T00:42:26.340Z,98238.31
2022-12-14T00:42:38.279Z,98244.28
2022-12-14T00:42:50.243Z,98239.16
2022-12-14T00:43:02.184Z,98237.41
2022-12-14T00:43:14.134Z,98241.66
2022-12-14T00:43:26.311Z,98239.97
2022-12-14T00:43:38.744Z,98235.78
2022-12-14T00:43:50.682Z,98237.50
2022-12-14T00:44:02.719Z,98238.34
2022-12-14T00:44:15.366Z,98239.16
2022-12-14T00:44:27.295Z,98234.88
2022-12-14T00:44:39.224Z,98237.44
2022-12-14T00:44:51.169Z,98234.88
2022-12-14T00:45:04.930Z,98234.88
2022-12-14T00:45:16.846Z,98232.47
2022-12-14T00:45:28.817Z,98239.25
2022-12-14T00:45:43.982Z,98234.16
2022-12-14T00:45:56.171Z,98235.03
2022-12-14T00:46:08.372Z,98236.72
2022-12-14T00:46:20.681Z,98229.88
2022-12-14T00:46:32.672Z,98229.09
2022-12-14T00:46:44.590Z,98231.59
2022-12-14T00:46:56.653Z,98232.47
2022-12-14T00:47:08.599Z,98233.28
2022-12-14T00:47:20.496Z,98238.34
2022-12-14T00:47:37.511Z,98232.34
2022-12-14T00:47:52.368Z,98235.78
2022-12-14T00:48:04.632Z,98236.63
2022-12-14T00:48:18.955Z,98238.31
2022-12-14T00:48:31.778Z,98230.66
2022-12-14T00:48:44.226Z,98229.78
2022-12-14T00:48:56.110Z,98234.88
2022-12-14T00:49:08.046Z,98236.59
2022-12-14T00:49:19.922Z,98239.97
2022-12-14T00:49:31.793Z,98229.75
2022-12-14T00:49:43.977Z,98228.03
2022-12-14T00:49:55.954Z,98228.03
2022-12-14T00:50:08.379Z,98236.50
2022-12-14T00:50:20.334Z,98233.06
2022-12-14T00:50:32.314Z,98229.69
2022-12-14T00:50:48.556Z,98231.41
2022-12-14T00:51:00.928Z,98233.06
2022-12-14T00:51:14.678Z,98233.94
2022-12-14T00:51:26.736Z,98235.63
2022-12-14T00:51:38.745Z,98231.41
2022-12-14T00:51:50.731Z,98229.66
2022-12-14T00:52:02.756Z,98235.59
2022-12-14T00:52:14.695Z,98236.47
2022-12-14T00:52:26.711Z,98227.97
2022-12-14T00:52:38.655Z,98233.06
2022-12-14T00:52:50.555Z,98231.34
2022-12-14T00:53:02.520Z,98234.72
2022-12-14T00:53:14.461Z,98235.59
2022-12-14T00:53:26.399Z,98238.19
2022-12-14T00:53:38.346Z,98235.59
2022-12-14T00:53:50.321Z,98234.72
2022-12-14T00:54:02.300Z,98235.59
2022-12-14T00:54:14.214Z,98233.88
2022-12-14T00:54:26.198Z,98239.00
2022-12-14T00:54:38.123Z,98244.09
2022-12-14T00:54:50.086Z,98239.00
2022-12-14T00:55:02.102Z,98243.22
2022-12-14T00:55:14.135Z,98233.00
2022-12-14T00:55:26.616Z,98234.72
2022-12-14T00:55:42.259Z,98241.47
2022-12-14T00:55:54.270Z,98234.69
2022-12-14T00:56:07.892Z,98238.09
2022-12-14T00:56:19.998Z,98238.09
2022-12-14T00:56:32.040Z,98234.72
2022-12-14T00:56:44.042Z,98241.47
2022-12-14T00:56:55.939Z,98241.53
2022-12-14T00:57:08.173Z,98237.28
2022-12-14T00:57:20.141Z,98237.28
2022-12-14T00:57:32.035Z,98233.06
2022-12-14T00:57:44.007Z,98227.94
2022-12-14T00:57:55.996Z,98238.97
2022-12-14T00:58:10.141Z,98230.47
2022-12-14T00:58:24.894Z,98235.56
2022-12-14T00:58:37.074Z,98236.38
2022-12-14T00:58:53.466Z,98232.97
2022-12-14T00:59:05.462Z,98229.53
2022-12-14T00:59:22.873Z,98237.19
2022-12-14T00:59:37.698Z,98236.34
2022-12-14T00:59:49.618Z,98229.50
2022-12-14T01:00:01.558Z,98233.78
2022-12-14T01:00:14.040Z,98235.44
2022-12-14T01:00:26.001Z,98231.19
2022-12-14T01:00:38.116Z,98238.00
2022-12-14T01:01:02.253Z,98233.06
2022-12-14T01:01:14.364Z,98231.34
2022-12-14T01:01:26.495Z,98227.88
2022-12-14T01:01:38.704Z,98233.03
2022-12-14T01:01:50.814Z,98233.03
2022-12-14T01:02:03.065Z,98230.50
2022-12-14T01:02:15.109Z,98233.88
2022-12-14T01:02:27.240Z,98229.63
2022-12-14T01:02:39.314Z,98227.09
2022-12-14T01:02:51.322Z,98232.22
2022-12-14T01:03:03.663Z,98231.41
2022-12-14T01:03:15.914Z,98228.06
2022-12-14T01:03:28.540Z,98231.41
2022-12-14T01:03:40.865Z,98228.09
2022-12-14T01:04:13.101Z,98232.34
2022-12-14T01:04:26.079Z,98231.47
2022-12-14T01:04:38.089Z,98233.13
2022-12-14T01:04:49.981Z,98234.81
2022-12-14T01:05:01.882Z,98234.81
2022-12-14T01:05:13.806Z,98237.38
2022-12-14T01:05:25.713Z,98231.44
2022-12-14T01:05:39.056Z,98236.63
2022-12-14T01:05:51.007Z,98234.06
2022-12-14T01:06:03.170Z,98231.47
2022-12-14T01:06:21.786Z,98236.53
2022-12-14T01:06:33.697Z,98243.69
2022-12-14T01:06:51.087Z,98237.75
2022-12-14T01:07:03.131Z,98243.69
2022-12-14T01:07:15.156Z,98236.88
2022-12-14T01:07:27.134Z,98241.97
2022-12-14T01:07:39.076Z,98241.06
2022-12-14T01:07:51.060Z,98244.41
2022-12-14T01:08:03.427Z,98241.81
2022-12-14T01:08:15.648Z,98240.97
2022-12-14T01:08:35.243Z,98238.34
2022-12-14T01:08:48.796Z,98231.50
2022-12-14T01:09:00.693Z,98238.34
2022-12-14T01:09:13.570Z,98240.81
2022-12-14T01:09:26.593Z,98235.72
2022-12-14T01:09:38.595Z,98234.88
2022-12-14T01:09:50.531Z,98240.84
2022-12-14T01:10:02.454Z,98239.09
2022-12-14T01:10:14.421Z,98227.19
2022-12-14T01:10:26.352Z,98238.22
2022-12-14T01:10:40.380Z,98232.25
2022-12-14T01:10:52.441Z,98229.66
2022-12-14T01:11:06.674Z,98239.84
2022-12-14T01:11:18.580Z,98239.84
2022-12-14T01:11:30.471Z,98235.56
2022-12-14T01:11:43.988Z,98238.09
2022-12-14T01:11:55.903Z,98233.88
2022-12-14T01:12:07.903Z,98233.81
2022-12-14T01:12:19.864Z,98231.25
2022-12-14T01:12:31.763Z,98235.53
2022-12-14T01:12:43.696Z,98230.41
2022-12-14T01:12:55.652Z,98229.53
2022-12-14T01:13:07.691Z,98231.22
2022-12-14T01:13:19.639Z,98238.84
2022-12-14T01:13:31.655Z,98236.34
2022-12-14T01:13:43.708Z,98237.16
2022-12-14T01:13:55.962Z,98234.69
2022-12-14T01:14:08.411Z,98242.34
2022-12-14T01:14:21.248Z,98238.91
2022-12-14T01:14:33.297Z,98232.97
2022-12-14T01:14:46.362Z,98231.22
2022-12-14T01:14:58.537Z,98233.81
2022-12-14T01:15:10.861Z,98238.94
2022-12-14T01:15:22.887Z,98234.69
2022-12-14T01:15:36.099Z,98238.91
2022-12-14T01:15:48.099Z,98238.09
2022-12-14T01:16:11.927Z,98239.84
2022-12-14T01:16:23.867Z,98231.34
2022-12-14T01:16:36.080Z,98243.28
2022-12-14T01:16:48.074Z,98233.06
2022-12-14T01:16:59.974Z,98236.50
2022-12-14T01:17:12.222Z,98232.28
2022-12-14T01:17:24.118Z,98237.38
2022-12-14T01:17:36.003Z,98239.09
2022-12-14T01:17:47.974Z,98242.44
2022-12-14T01:17:59.880Z,98243.28
2022-12-14T01:18:11.887Z,98242.47
2022-12-14T01:18:23.851Z,98245.03
2022-12-14T01:18:37.304Z,98243.28
2022-12-14T01:18:49.317Z,98246.69
2022-12-14T01:19:02.552Z,98239.88
2022-12-14T01:19:19.096Z,98239.06
2022-12-14T01:19:31.153Z,98246.00
2022-12-14T01:19:43.063Z,98241.72
2022-12-14T01:19:55.041Z,98241.69
2022-12-14T01:20:07.529Z,98244.25
2022-12-14T01:20:19.917Z,98238.25
2022-12-14T01:20:31.873Z,98245.91
2022-12-14T01:20:43.875Z,98248.47
2022-12-14T01:20:55.772Z,98244.22
2022-12-14T01:21:18.137Z,98245.06
2022-12-14T01:21:30.391Z,98239.09
2022-12-14T01:21:42.362Z,98242.47
2022-12-14T01:21:54.385Z,98236.50
2022-12-14T01:22:06.387Z,98241.63
2022-12-14T01:22:18.328Z,98245.91
2022-12-14T01:22:30.344Z,98246.72
2022-12-14T01:22:42.300Z,98241.56
2022-12-14T01:22:56.204Z,98240.69
2022-12-14T01:23:08.108Z,98236.44
2022-12-14T01:23:20.015Z,98239.81
2022-12-14T01:23:31.949Z,98242.34
2022-12-14T01:23:45.104Z,98241.47
2022-12-14T01:23:59.614Z,98241.47
2022-12-14T01:24:11.565Z,98238.84
2022-12-14T01:24:23.450Z,98234.63
2022-12-14T01:24:35.353Z,98244.00
2022-12-14T01:24:47.726Z,98237.16
2022-12-14T01:24:59.742Z,98237.13
2022-12-14T01:25:11.798Z,98239.66
2022-12-14T01:25:24.061Z,98237.94
2022-12-14T01:25:35.985Z,98243.88
2022-12-14T01:25:48.837Z,98238.75
2022-12-14T01:26:00.939Z,98242.19
2022-12-14T01:26:17.459Z,98238.75
2022-12-14T01:26:33.219Z,98242.13
2022-12-14T01:26:45.282Z,98244.75
2022-12-14T01:26:57.227Z,98234.53
2022-12-14T01:27:09.242Z,98234.53
2022-12-14T01:27:21.478Z,98237.09
2022-12-14T01:27:33.415Z,98236.19
2022-12-14T01:27:45.991Z,98242.13
2022-12-14T01:27:57.894Z,98236.19
2022-12-14T01:28:09.841Z,98229.34
2022-12-14T01:28:21.732Z,98236.19
2022-12-14T01:28:35.039Z,98240.38
2022-12-14T01:28:48.192Z,98237.81
2022-12-14T01:29:00.338Z,98237.81
2022-12-14T01:29:12.894Z,98235.25
2022-12-14T01:29:24.935Z,98234.41
2022-12-14T01:29:37.023Z,98232.69
2022-12-14T01:29:49.028Z,98235.22
2022-12-14T01:30:00.979Z,98233.66
2022-12-14T01:30:13.447Z,98234.53
2022-12-14T01:30:25.349Z,98228.75
2022-12-14T01:30:39.503Z,98231.41
2022-12-14T01:30:51.947Z,98233.06
2022-12-14T01:31:09.475Z,98229.63
2022-12-14T01:31:24.914Z,98225.66
2022-12-14T01:31:38.916Z,98233.25
2022-12-14T01:31:50.909Z,98227.25
2022-12-14T01:32:02.835Z,98233.22
2022-12-14T01:32:14.721Z,98239.16
2022-12-14T01:32:26.669Z,98228.06
2022-12-14T01:32:38.778Z,98229.75
2022-12-14T01:32:50.670Z,98226.31
2022-12-14T01:33:02.574Z,98234.81
2022-12-14T01:33:14.483Z,98228.84
2022-12-14T01:33:26.624Z,98237.31
2022-12-14T01:33:38.978Z,98232.22
2022-12-14T01:33:51.638Z,98229.59
2022-12-14T01:34:03.780Z,98228.72
2022-12-14T01:34:15.882Z,98238.06
2022-12-14T01:34:27.903Z,98229.53
2022-12-14T01:34:39.944Z,98234.63
2022-12-14T01:34:51.887Z,98232.88
2022-12-14T01:35:04.340Z,98229.50
2022-12-14T01:35:17.273Z,98227.81
2022-12-14T01:35:29.247Z,98232.88
2022-12-14T01:35:41.133Z,98233.72
2022-12-14T01:35:53.206Z,98226.03
2022-12-14T01:36:10.619Z,98227.72
2022-12-14T01:36:28.345Z,98227.69
2022-12-14T01:36:40.361Z,98231.91
2022-12-14T01:36:52.323Z,98224.25
2022-12-14T01:37:04.963Z,98231.06
2022-12-14T01:37:17.000Z,98228.53
2022-12-14T01:37:28.987Z,98219.13
2022-12-14T01:37:41.008Z,98223.44
2022-12-14T01:37:52.986Z,98224.25
2022-12-14T01:38:04.931Z,98225.13
2022-12-14T01:38:16.861Z,98220.84
2022-12-14T01:38:28.752Z,98218.31
2022-12-14T01:38:40.925Z,98219.13
2022-12-14T01:38:58.780Z,98220.00
2022-12-14T01:39:13.623Z,98223.38
2022-12-14T01:39:25.845Z,98224.22
2022-12-14T01:39:37.779Z,98219.94
2022-12-14T01:39:49.650Z,98215.69
2022-12-14T01:40:01.554Z,98220.75
2022-12-14T01:40:13.543Z,98217.34
2022-12-14T01:40:25.516Z,98213.91
2022-12-14T01:40:37.492Z,98212.19
2022-12-14T01:40:49.436Z,98214.75
2022-12-14T01:41:01.828Z,98215.63
2022-12-14T01:41:25.624Z,98212.16
2022-12-14T01:41:43.672Z,98214.75
2022-12-14T01:41:55.674Z,98212.16
2022-12-14T01:42:15.398Z,98217.34
2022-12-14T01:42:27.326Z,98219.00
2022-12-14T01:42:39.253Z,98211.34
2022-12-14T01:42:51.219Z,98211.34
2022-12-14T01:43:03.143Z,98208.78
2022-12-14T01:43:15.152Z,98210.50
2022-12-14T01:43:47.083Z,98213.88
2022-12-14T01:44:03.530Z,98202.00
2022-12-14T01:44:18.128Z,98203.69
2022-12-14T01:44:30.005Z,98198.56
2022-12-14T01:44:44.704Z,98202.78
2022-12-14T01:44:58.440Z,98206.22
2022-12-14T01:45:22.038Z,98203.69
2022-12-14T01:45:33.939Z,98206.25
2022-12-14T01:45:45.946Z,98202.00
2022-12-14T01:45:58.589Z,98202.84
2022-12-14T01:46:10.572Z,98201.19
2022-12-14T01:46:47.674Z,98204.53
2022-12-14T01:47:12.131Z,98207.97
2022-12-14T01:47:36.394Z,98202.13
2022-12-14T01:47:58.560Z,98215.72
2022-12-14T01:48:13.347Z,98207.22
2022-12-14T01:48:25.372Z,98212.31
2022-12-14T01:48:37.353Z,98214.00
2022-12-14T01:48:53.257Z,98214.88
2022-12-14T01:49:10.573Z,98217.44
2022-12-14T01:49:28.638Z,98217.38
2022-12-14T01:49:43.518Z,98208.84
2022-12-14T01:50:18.219Z,98217.34
2022-12-14T01:50:35.432Z,98213.09
2022-12-14T01:50:47.581Z,98212.22
2022-12-14T01:50:59.502Z,98217.34
2022-12-14T01:51:11.434Z,98214.00
2022-12-14T01:51:24.996Z,98216.56
2022-12-14T01:51:38.573Z,98211.44
2022-12-14T01:51:58.372Z,98216.53
2022-12-14T01:52:17.427Z,98216.53
2022-12-14T01:52:45.085Z,98208.06
2022-12-14T01:53:05.802Z,98217.44
2022-12-14T01:53:21.692Z,98215.69
2022-12-14T01:53:33.709Z,98213.16
2022-12-14T01:53:46.905Z,98206.31
2022-12-14T01:54:01.769Z,98209.72
2022-12-14T01:54:16.123Z,98209.72
2022-12-14T01:54:31.948Z,98212.31
2022-12-14T01:54:53.877Z,98216.56
2022-12-14T01:55:05.973Z,98207.22
2022-12-14T01:55:56.586Z,98214.84
2022-12-14T01:56:08.677Z,98213.97
2022-12-14T01:56:20.848Z,98213.09
2022-12-14T01:56:38.352Z,98212.25
2022-12-14T01:56:51.615Z,98214.81
2022-12-14T01:57:04.203Z,98212.25
2022-12-14T01:57:19.111Z,98217.34
2022-12-14T01:58:03.441Z,98217.28
2022-12-14T01:58:23.415Z,98207.91
2022-12-14T01:58:35.378Z,98214.78
2022-12-14T01:58:47.452Z,98208.84
2022-12-14T01:59:04.191Z,98210.53
2022-12-14T01:59:23.149Z,98210.50
2022-12-14T01:59:40.095Z,98207.97
2022-12-14T01:59:52.811Z,98202.88
2022-12-14T02:00:08.798Z,98202.00
2022-12-14T02:00:21.202Z,98206.25
2022-12-14T02:00:33.244Z,98205.41
2022-12-14T02:00:45.445Z,98201.13
2022-12-14T02:01:01.409Z,98205.38
2022-12-14T02:01:13.865Z,98200.28
2022-12-14T02:01:26.056Z,98205.38
2022-12-14T02:01:38.424Z,98210.50
2022-12-14T02:01:52.028Z,98205.41
2022-12-14T02:02:08.021Z,98203.75
2022-12-14T02:02:21.791Z,98204.59
2022-12-14T02:02:35.924Z,98200.38
2022-12-14T02:02:57.046Z,98202.13
2022-12-14T02:03:30.563Z,98207.25
2022-12-14T02:03:49.484Z,98203.91
2022-12-14T02:04:02.499Z,98196.28
2022-12-14T02:04:17.290Z,98209.97
2022-12-14T02:04:30.754Z,98204.84
2022-12-14T02:04:47.250Z,98203.97
2022-12-14T02:05:02.544Z,98204.81
2022-12-14T02:05:16.808Z,98202.22
2022-12-14T02:05:30.245Z,98209.88
2022-12-14T02:05:48.472Z,98206.44
2022-12-14T02:06:05.728Z,98203.03
2022-12-14T02:06:22.579Z,98202.16
2022-12-14T02:06:38.295Z,98200.44
2022-12-14T02:06:56.456Z,98197.03
2022-12-14T02:07:14.433Z,98198.69
2022-12-14T02:07:29.023Z,98198.75
2022-12-14T02:07:44.164Z,98206.41
2022-12-14T02:08:02.596Z,98203.03
2022-12-14T02:08:17.356Z,98199.59
2022-12-14T02:08:29.995Z,98194.53
2022-12-14T02:08:43.448Z,98201.34
2022-12-14T02:08:58.534Z,98205.53
2022-12-14T02:09:16.559Z,98200.50
2022-12-14T02:09:33.065Z,98201.31
2022-12-14T02:09:46.701Z,98199.59
2022-12-14T02:10:02.875Z,98195.50
2022-12-14T02:10:15.823Z,98200.56
2022-12-14T02:10:30.366Z,98202.34
2022-12-14T02:10:44.119Z,98197.28
2022-12-14T02:10:57.460Z,98204.03
2022-12-14T02:11:09.892Z,98198.94
2022-12-14T02:12:00.801Z,98200.66
2022-12-14T02:12:17.242Z,98200.66
2022-12-14T02:12:39.203Z,98198.13
2022-12-14T02:12:58.626Z,98201.50
2022-12-14T02:13:19.431Z,98198.94
2022-12-14T02:13:33.805Z,98197.22
2022-12-14T02:13:46.241Z,98196.41
2022-12-14T02:14:01.015Z,98195.56
2022-12-14T02:14:12.986Z,98193.91
2022-12-14T02:14:25.249Z,98198.97
2022-12-14T02:14:38.574Z,98190.44
2022-12-14T02:14:53.243Z,98193.00
2022-12-14T02:15:06.201Z,98194.72
2022-12-14T02:15:18.662Z,98196.38
2022-12-14T02:15:31.577Z,98200.59
2022-12-14T02:15:44.137Z,98193.75
2022-12-14T02:15:56.107Z,98190.44
2022-12-14T02:16:08.490Z,98195.56
2022-12-14T02:16:20.594Z,98189.59
2022-12-14T02:16:32.839Z,98189.63
2022-12-14T02:16:44.810Z,98192.16
2022-12-14T02:16:57.683Z,98188.72
2022-12-14T02:17:12.068Z,98186.09
2022-12-14T02:17:24.430Z,98184.41
2022-12-14T02:17:36.560Z,98185.25
2022-12-14T02:17:48.891Z,98186.09
2022-12-14T02:18:03.299Z,98176.69
2022-12-14T02:18:21.002Z,98178.41
2022-12-14T02:18:33.897Z,98171.59
2022-12-14T02:18:45.947Z,98181.88
2022-12-14T02:18:57.861Z,98171.59
2022-12-14T02:19:09.804Z,98176.69
2022-12-14T02:19:22.208Z,98165.63
2022-12-14T02:19:35.730Z,98173.28
2022-12-14T02:19:49.368Z,98169.91
2022-12-14T02:20:02.684Z,98166.47
2022-12-14T02:20:16.177Z,98163.91
2022-12-14T02:20:38.512Z,98166.44
2022-12-14T02:21:02.375Z,98157.91
2022-12-14T02:21:20.745Z,98159.63
2022-12-14T02:21:54.882Z,98159.63
2022-12-14T02:22:24.714Z,98159.63
2022-12-14T02:23:14.142Z,98162.19
2022-12-14T02:23:53.384Z,98156.41
2022-12-14T02:24:28.362Z,98157.16
2022-12-14T02:24:43.014Z,98161.47
2022-12-14T02:25:17.563Z,98151.25
2022-12-14T02:25:44.541Z,98155.47
2022-12-14T02:26:28.578Z,98151.22
2022-12-14T02:26:55.390Z,98151.19
2022-12-14T02:27:38.318Z,98158.03
2022-12-14T02:28:20.718Z,98158.06
2022-12-14T02:29:06.567Z,98154.69
2022-12-14T02:29:36.425Z,98147.81
2022-12-14T02:29:56.984Z,98149.56
2022-12-14T02:30:22.651Z,98147.78
2022-12-14T02:30:40.839Z,98152.03
2022-12-14T02:31:04.537Z,98146.91
2022-12-14T02:31:38.575Z,98144.47
2022-12-14T02:32:14.697Z,98147.00
2022-12-14T02:32:51.753Z,98142.72
2022-12-14T02:33:09.534Z,98141.00
2022-12-14T02:33:41.709Z,98150.41
2022-12-14T02:34:18.132Z,98147.81
2022-12-14T02:34:58.473Z,98147.88
2022-12-14T02:35:37.648Z,98146.19
2022-12-14T02:36:07.533Z,98145.31
2022-12-14T02:36:35.127Z,98148.72
2022-12-14T02:37:00.108Z,98142.75
2022-12-14T02:37:21.125Z,98144.47
2022-12-14T02:37:44.589Z,98148.69
2022-12-14T02:38:25.710Z,98146.13
2022-12-14T02:39:18.862Z,98151.25
2022-12-14T02:40:00.882Z,98144.41
2022-12-14T02:40:27.485Z,98139.28
2022-12-14T02:41:05.193Z,98152.00
2022-12-14T02:41:38.407Z,98140.94
2022-12-14T02:42:13.544Z,98145.25
2022-12-14T02:42:50.751Z,98145.22
2022-12-14T02:43:37.495Z,98151.16
2022-12-14T02:44:09.122Z,98144.38
2022-12-14T02:44:45.263Z,98145.25
2022-12-14T02:45:08.831Z,98142.66
2022-12-14T02:45:32.115Z,98141.00
2022-12-14T02:45:54.635Z,98145.22
2022-12-14T02:46:09.465Z,98137.50
2022-12-14T02:46:30.372Z,98140.88
2022-12-14T02:46:50.396Z,98144.28
2022-12-14T02:47:15.629Z,98136.63
2022-12-14T02:47:38.365Z,98138.44
2022-12-14T02:47:56.264Z,98143.47
2022-12-14T02:48:30.621Z,98142.63
2022-12-14T02:48:50.043Z,98144.28
2022-12-14T02:49:30.275Z,98142.56
2022-12-14T02:50:04.794Z,98141.81
2022-12-14T02:50:22.347Z,98137.56
2022-12-14T02:50:43.914Z,98141.00
2022-12-14T02:51:12.169Z,98139.28
2022-12-14T02:51:51.320Z,98135.88
2022-12-14T02:52:11.024Z,98139.25
2022-12-14T02:53:01.276Z,98140.94
2022-12-14T02:53:35.362Z,98143.56
2022-12-14T02:54:11.842Z,98141.00
2022-12-14T02:54:39.088Z,98147.81
2022-12-14T02:55:01.637Z,98152.03
2022-12-14T02:55:19.893Z,98144.41
2022-12-14T02:55:37.427Z,98151.25
2022-12-14T02:55:52.309Z,98146.13
2022-12-14T02:56:09.492Z,98152.94
2022-12-14T02:56:28.155Z,98153.94
2022-12-14T02:56:45.183Z,98156.44
2022-12-14T02:57:11.290Z,98159.81
2022-12-14T02:57:28.465Z,98149.69
2022-12-14T02:58:12.119Z,98155.69
2022-12-14T02:58:34.290Z,98147.13
2022-12-14T02:58:50.425Z,98152.22
2022-12-14T02:59:06.611Z,98158.97
2022-12-14T02:59:19.706Z,98152.19
2022-12-14T02:59:33.814Z,98150.47
2022-12-14T02:59:47.227Z,98157.25